createdAt,value
2022-12-12T00:01:26.536Z,11.57
2022-12-12T00:03:56.400Z,12.33
2022-12-12T00:06:25.433Z,12.87
2022-12-12T00:08:53.952Z,11.50
2022-12-12T00:11:23.328Z,10.70
2022-12-12T00:13:52.812Z,12.83
2022-12-12T00:16:21.124Z,10.70
2022-12-12T00:18:49.616Z,10.60
2022-12-12T00:21:21.431Z,11.13
2022-12-12T00:23:49.823Z,12.80
2022-12-12T00:26:21.075Z,11.10
2022-12-12T00:28:50.043Z,9.50
2022-12-12T00:31:19.000Z,10.63
2022-12-12T00:33:49.077Z,10.27
2022-12-12T00:36:20.019Z,10.07
2022-12-12T00:38:48.407Z,11.50
2022-12-12T00:41:16.781Z,9.70
2022-12-12T00:43:45.001Z,10.70
2022-12-12T00:46:16.046Z,11.10
2022-12-12T00:48:44.410Z,9.90
2022-12-12T00:51:16.166Z,11.90
2022-12-12T00:53:46.025Z,15.60
2022-12-12T00:56:16.225Z,9.33
2022-12-12T00:58:44.710Z,15.03
2022-12-12T01:01:14.990Z,14.03
2022-12-12T01:03:43.949Z,13.00
2022-12-12T01:06:12.869Z,14.00
2022-12-12T01:08:41.900Z,11.00
2022-12-12T01:11:12.323Z,11.40
2022-12-12T01:13:41.114Z,15.77
2022-12-12T01:16:10.063Z,11.13
2022-12-12T01:18:38.724Z,13.10
2022-12-12T01:21:10.422Z,10.37
2022-12-12T01:23:39.084Z,13.43
2022-12-12T01:26:09.802Z,12.30
2022-12-12T01:28:39.645Z,10.73
2022-12-12T01:31:08.166Z,10.30
2022-12-12T01:33:37.003Z,12.50
2022-12-12T01:36:05.563Z,10.20
2022-12-12T01:38:33.875Z,9.50
2022-12-12T01:41:02.053Z,10.17
2022-12-12T01:43:31.314Z,10.10
2022-12-12T01:46:33.704Z,10.27
2022-12-12T01:49:06.651Z,9.70
2022-12-12T01:51:35.200Z,10.63
2022-12-12T01:54:08.226Z,8.23
2022-12-12T01:56:37.510Z,11.70
2022-12-12T01:59:08.606Z,11.23
2022-12-12T02:01:39.366Z,14.17
2022-12-12T02:04:09.697Z,14.17
2022-12-12T02:06:37.969Z,10.50
2022-12-12T02:09:10.045Z,23.60
2022-12-12T02:11:44.681Z,51.77
2022-12-12T02:14:14.903Z,37.67
2022-12-12T02:17:00.587Z,24.80
2022-12-12T02:19:58.632Z,20.37
2022-12-12T02:22:47.660Z,25.17
2022-12-12T02:25:40.707Z,18.60
2022-12-12T02:28:41.859Z,16.73
2022-12-12T02:31:16.716Z,11.00
2022-12-12T02:33:52.716Z,10.13
2022-12-12T02:36:29.124Z,9.70
2022-12-12T02:39:07.314Z,8.53
2022-12-12T02:41:41.654Z,11.07
2022-12-12T02:44:18.828Z,9.70
2022-12-12T02:46:55.738Z,9.80
2022-12-12T02:49:28.462Z,11.57
2022-12-12T02:51:56.948Z,9.50
2022-12-12T02:54:25.651Z,12.57
2022-12-12T02:56:56.763Z,11.37
2022-12-12T02:59:29.677Z,10.60
2022-12-12T03:02:22.865Z,9.00
2022-12-12T03:05:30.102Z,8.60
2022-12-12T03:08:11.073Z,9.37
2022-12-12T03:10:49.012Z,9.00
2022-12-12T03:13:29.544Z,9.17
2022-12-12T03:16:06.632Z,8.27
2022-12-12T03:18:43.614Z,9.70
2022-12-12T03:21:16.980Z,9.00
2022-12-12T03:23:51.309Z,10.70
2022-12-12T03:26:24.848Z,11.43
2022-12-12T03:29:04.633Z,9.13
2022-12-12T03:31:36.702Z,12.50
2022-12-12T03:34:11.190Z,8.17
2022-12-12T03:36:45.184Z,8.77
2022-12-12T03:39:24.321Z,9.07
2022-12-12T03:41:56.258Z,9.87
2022-12-12T03:44:29.193Z,10.37
2022-12-12T03:47:02.739Z,9.50
2022-12-12T03:49:39.765Z,9.63
2022-12-12T03:52:14.200Z,9.90
2022-12-12T03:54:50.068Z,8.43
2022-12-12T03:57:23.248Z,11.80
2022-12-12T03:59:55.728Z,9.87
2022-12-12T04:02:32.430Z,8.60
2022-12-12T04:05:07.339Z,9.43
2022-12-12T04:07:39.863Z,8.47
2022-12-12T04:10:26.709Z,8.37
2022-12-12T04:13:05.442Z,12.63
2022-12-12T04:15:55.319Z,11.10
2022-12-12T04:18:30.848Z,20.33
2022-12-12T04:21:26.468Z,17.20
2022-12-12T04:24:04.839Z,16.90
2022-12-12T04:26:42.331Z,15.90
2022-12-12T04:29:27.506Z,13.83
2022-12-12T04:31:59.977Z,11.33
2022-12-12T04:34:36.515Z,10.67
2022-12-12T04:37:08.001Z,11.43
2022-12-12T04:39:38.835Z,8.80
2022-12-12T04:42:09.521Z,9.70
2022-12-12T04:44:41.424Z,10.13
2022-12-12T04:47:11.183Z,8.47
2022-12-12T04:49:42.537Z,8.80
2022-12-12T04:52:14.347Z,8.60
2022-12-12T04:54:48.316Z,8.83
2022-12-12T04:57:22.144Z,10.10
2022-12-12T04:59:50.658Z,10.43
2022-12-12T05:02:25.863Z,10.20
2022-12-12T05:04:58.825Z,8.40
2022-12-12T05:07:40.031Z,10.63
2022-12-12T05:10:11.973Z,10.13
2022-12-12T05:12:46.015Z,9.40
2022-12-12T05:15:14.805Z,9.87
2022-12-12T05:17:45.897Z,10.00
2022-12-12T05:20:14.488Z,10.73
2022-12-12T05:22:43.999Z,8.50
2022-12-12T05:25:12.617Z,9.30
2022-12-12T05:27:40.943Z,9.57
2022-12-12T05:30:10.675Z,8.67
2022-12-12T05:32:39.050Z,10.47
2022-12-12T05:35:09.015Z,8.43
2022-12-12T05:37:37.489Z,8.50
2022-12-12T05:40:09.485Z,10.20
2022-12-12T05:42:37.666Z,13.50
2022-12-12T05:45:07.095Z,12.20
2022-12-12T05:47:35.569Z,13.63
2022-12-12T05:50:03.748Z,12.80
2022-12-12T05:52:31.970Z,10.00
2022-12-12T05:55:00.146Z,12.00
2022-12-12T05:57:29.697Z,16.90
2022-12-12T05:59:57.802Z,9.10
2022-12-12T06:02:26.030Z,12.53
2022-12-12T06:04:54.234Z,13.53
2022-12-12T06:07:22.354Z,9.60
2022-12-12T06:09:50.464Z,119.63
2022-12-12T06:12:18.555Z,105.07
2022-12-12T06:14:48.065Z,13.20
2022-12-12T06:17:16.212Z,10.17
2022-12-12T06:19:44.433Z,21.53
2022-12-12T06:22:12.559Z,26.27
2022-12-12T06:24:40.679Z,14.10
2022-12-12T06:27:10.064Z,12.33
2022-12-12T06:29:38.783Z,15.40
2022-12-12T06:32:08.506Z,31.67
2022-12-12T06:34:38.181Z,16.90
2022-12-12T06:37:10.733Z,19.20
2022-12-12T06:39:44.029Z,15.23
2022-12-12T06:42:12.184Z,13.17
2022-12-12T06:44:40.329Z,23.20
2022-12-12T06:47:09.944Z,25.37
2022-12-12T06:49:38.423Z,14.40
2022-12-12T06:52:07.224Z,32.07
2022-12-12T06:54:37.096Z,21.77
2022-12-12T06:57:05.398Z,26.50
2022-12-12T06:59:33.485Z,19.10
2022-12-12T07:02:02.459Z,21.30
2022-12-12T07:04:31.996Z,15.70
2022-12-12T07:07:00.146Z,18.87
2022-12-12T07:09:28.777Z,21.80
2022-12-12T07:11:56.929Z,20.23
2022-12-12T07:14:25.046Z,35.93
2022-12-12T07:16:53.217Z,31.80
2022-12-12T07:19:22.755Z,31.33
2022-12-12T07:21:52.264Z,32.83
2022-12-12T07:24:20.441Z,31.33
2022-12-12T07:26:48.590Z,28.30
2022-12-12T07:29:16.771Z,29.10
2022-12-12T07:42:18.949Z,17.20
2022-12-12T07:44:47.146Z,16.03
2022-12-12T07:47:15.785Z,16.03
2022-12-12T07:49:43.937Z,16.00
2022-12-12T07:52:12.263Z,15.70
2022-12-12T07:54:40.535Z,14.90
2022-12-12T07:57:08.694Z,27.70
2022-12-12T07:59:38.513Z,25.60
2022-12-12T08:02:06.878Z,23.40
2022-12-12T08:04:35.057Z,16.73
2022-12-12T08:07:08.316Z,21.03
2022-12-12T08:09:38.168Z,23.53
2022-12-12T08:12:08.102Z,25.00
2022-12-12T08:14:38.643Z,25.50
2022-12-12T08:17:06.808Z,24.67
2022-12-12T08:19:35.052Z,27.77
2022-12-12T08:22:03.579Z,34.23
2022-12-12T08:24:31.831Z,81.43
2022-12-12T08:26:59.993Z,63.27
2022-12-12T08:29:28.229Z,113.23
2022-12-12T08:31:57.760Z,122.20
2022-12-12T08:34:26.995Z,197.57
2022-12-12T08:36:55.381Z,106.47
2022-12-12T08:39:23.625Z,72.13
2022-12-12T08:41:51.803Z,50.10
2022-12-12T08:44:21.686Z,41.03
2022-12-12T08:46:50.561Z,43.27
2022-12-12T08:49:20.382Z,36.43
2022-12-12T08:51:48.713Z,40.50
2022-12-12T08:54:16.962Z,34.37
2022-12-12T08:56:48.117Z,62.03
2022-12-12T08:59:16.332Z,34.63
2022-12-12T09:01:44.690Z,31.43
2022-12-12T09:04:12.917Z,42.37
2022-12-12T09:06:42.452Z,37.10
2022-12-12T09:09:10.776Z,34.47
2022-12-12T09:11:39.016Z,26.70
2022-12-12T09:14:07.225Z,29.87
2022-12-12T09:16:36.873Z,26.40
2022-12-12T09:19:05.082Z,27.60
2022-12-12T09:21:35.756Z,33.97
2022-12-12T09:24:05.755Z,26.33
2022-12-12T09:26:37.492Z,27.23
2022-12-12T09:29:06.199Z,24.00
2022-12-12T09:31:34.376Z,24.77
2022-12-12T09:34:02.617Z,26.63
2022-12-12T09:36:30.782Z,20.20
2022-12-12T09:38:58.939Z,26.80
2022-12-12T09:41:30.685Z,26.80
2022-12-12T09:44:03.447Z,25.90
2022-12-12T09:46:38.730Z,31.20
2022-12-12T09:49:14.087Z,27.40
2022-12-12T09:51:45.082Z,21.50
2022-12-12T09:54:20.639Z,24.27
2022-12-12T09:57:06.976Z,50.90
2022-12-12T09:59:42.010Z,21.80
2022-12-12T10:02:31.064Z,22.47
2022-12-12T10:05:03.854Z,161.67
2022-12-12T10:07:40.615Z,24.50
2022-12-12T10:10:17.589Z,24.23
2022-12-12T10:12:49.010Z,21.63
2022-12-12T10:15:28.239Z,25.23
2022-12-12T10:17:58.058Z,23.70
2022-12-12T10:20:28.839Z,23.47
2022-12-12T10:23:05.445Z,29.03
2022-12-12T10:25:46.037Z,28.73
2022-12-12T10:28:18.194Z,29.13
2022-12-12T10:31:15.760Z,29.03
2022-12-12T10:33:56.925Z,29.70
2022-12-12T10:36:36.978Z,29.90
2022-12-12T10:39:15.286Z,33.60
2022-12-12T10:41:49.637Z,31.87
2022-12-12T10:44:30.226Z,35.90
2022-12-12T10:47:04.176Z,37.97
2022-12-12T10:49:33.202Z,41.77
2022-12-12T10:52:05.038Z,43.83
2022-12-12T10:54:37.971Z,37.90
2022-12-12T10:57:19.795Z,31.63
2022-12-12T10:59:52.305Z,32.47
2022-12-12T11:02:35.715Z,28.73
2022-12-12T11:05:11.676Z,39.40
2022-12-12T11:07:41.808Z,31.80
2022-12-12T11:10:25.253Z,32.50
2022-12-12T11:13:01.698Z,31.30
2022-12-12T11:15:39.586Z,34.87
2022-12-12T11:18:08.337Z,37.00
2022-12-12T11:20:41.909Z,30.90
2022-12-12T11:23:20.274Z,28.03
2022-12-12T11:25:56.102Z,32.50
2022-12-12T11:28:26.749Z,35.70
2022-12-12T11:30:57.766Z,32.10
2022-12-12T11:33:33.839Z,32.73
2022-12-12T11:36:06.401Z,34.93
2022-12-12T11:38:41.020Z,35.30
2022-12-12T11:41:11.356Z,35.80
2022-12-12T11:43:55.177Z,29.70
2022-12-12T11:46:28.635Z,34.17
2022-12-12T11:49:02.660Z,36.00
2022-12-12T11:51:39.372Z,32.90
2022-12-12T11:54:13.237Z,32.67
2022-12-12T11:56:48.449Z,30.20
2022-12-12T12:00:02.056Z,39.00
2022-12-12T12:02:57.064Z,31.17
2022-12-12T12:05:32.642Z,30.97
2022-12-12T12:08:15.737Z,29.77
2022-12-12T12:10:56.948Z,33.27
2022-12-12T12:13:39.986Z,33.23
2022-12-12T12:16:16.256Z,46.33
2022-12-12T12:18:59.557Z,54.40
2022-12-12T12:21:43.316Z,29.77
2022-12-12T12:24:46.578Z,27.53
2022-12-12T12:27:23.062Z,35.87
2022-12-12T12:30:18.526Z,30.80
2022-12-12T12:33:10.880Z,33.03
2022-12-12T12:35:51.875Z,33.97
2022-12-12T12:38:28.247Z,34.53
2022-12-12T12:41:19.166Z,36.53
2022-12-12T12:44:02.571Z,31.70
2022-12-12T12:46:38.516Z,32.90
2022-12-12T12:49:14.392Z,39.37
2022-12-12T12:51:51.050Z,36.27
2022-12-12T12:54:26.034Z,35.17
2022-12-12T12:56:59.693Z,30.90
2022-12-12T12:59:35.155Z,31.63
2022-12-12T13:02:10.921Z,34.70
2022-12-12T13:04:47.158Z,30.53
2022-12-12T13:07:24.125Z,33.33
2022-12-12T13:09:58.846Z,33.00
2022-12-12T13:12:31.208Z,36.70
2022-12-12T13:15:03.356Z,32.30
2022-12-12T13:17:46.831Z,34.17
2022-12-12T13:20:18.227Z,37.30
2022-12-12T13:23:00.818Z,36.23
2022-12-12T13:25:37.368Z,32.43
2022-12-12T13:28:10.517Z,34.10
2022-12-12T13:30:48.607Z,30.80
2022-12-12T13:33:40.904Z,34.80
2022-12-12T13:36:14.328Z,28.53
2022-12-12T13:38:50.521Z,28.90
2022-12-12T13:41:19.184Z,53.73
2022-12-12T13:43:49.477Z,32.33
2022-12-12T13:46:41.761Z,28.87
2022-12-12T13:49:34.445Z,31.63
2022-12-12T13:52:23.911Z,35.67
2022-12-12T13:54:55.776Z,35.63
2022-12-12T13:57:30.860Z,42.77
2022-12-12T14:00:20.584Z,33.23
2022-12-12T14:03:02.182Z,60.83
2022-12-12T14:05:34.271Z,47.57
2022-12-12T14:08:07.570Z,48.43
2022-12-12T14:10:40.967Z,39.63
2022-12-12T14:13:32.201Z,35.57
2022-12-12T14:16:17.611Z,38.50
2022-12-12T14:18:59.421Z,35.93
2022-12-12T14:21:42.720Z,34.43
2022-12-12T14:24:48.499Z,38.50
2022-12-12T14:27:18.172Z,34.90
2022-12-12T14:29:47.146Z,34.73
2022-12-12T14:32:39.273Z,30.33
2022-12-12T14:35:28.061Z,34.00
2022-12-12T14:38:05.099Z,35.70
2022-12-12T14:40:36.174Z,36.37
2022-12-12T14:43:19.248Z,35.40
2022-12-12T14:45:58.924Z,37.67
2022-12-12T14:48:28.756Z,35.50
2022-12-12T14:51:02.059Z,40.20
2022-12-12T14:53:34.492Z,40.10
2022-12-12T14:56:08.185Z,44.27
2022-12-12T14:58:41.290Z,42.20
2022-12-12T15:01:10.075Z,41.77
2022-12-12T15:03:44.918Z,40.70
2022-12-12T15:06:34.602Z,44.80
2022-12-12T15:09:21.571Z,41.50
2022-12-12T15:11:51.011Z,58.10
2022-12-12T15:14:23.670Z,45.63
2022-12-12T15:17:00.510Z,38.27
2022-12-12T15:19:32.360Z,78.23
2022-12-12T15:22:00.804Z,45.80
2022-12-12T15:24:37.171Z,33.30
2022-12-12T15:27:07.312Z,35.23
2022-12-12T15:29:38.892Z,37.90
2022-12-12T15:32:10.215Z,48.43
2022-12-12T15:34:40.954Z,34.40
2022-12-12T15:37:26.633Z,40.50
2022-12-12T15:40:01.847Z,43.27
2022-12-12T15:42:30.650Z,45.70
2022-12-12T15:45:01.300Z,34.70
2022-12-12T15:47:29.548Z,36.43
2022-12-12T15:50:08.250Z,42.33
2022-12-12T15:52:36.872Z,54.33
2022-12-12T15:55:05.880Z,46.00
2022-12-12T15:57:47.102Z,41.70
2022-12-12T16:00:37.950Z,40.50
2022-12-12T16:03:21.008Z,45.70
2022-12-12T16:06:03.309Z,41.13
2022-12-12T16:08:45.114Z,41.60
2022-12-12T16:11:42.095Z,39.60
2022-12-12T16:14:33.922Z,40.13
2022-12-12T16:17:08.232Z,45.73
2022-12-12T16:19:45.754Z,42.63
2022-12-12T16:22:31.443Z,43.40
2022-12-12T16:25:13.487Z,51.10
2022-12-12T16:27:41.619Z,41.60
2022-12-12T16:30:13.343Z,40.80
2022-12-12T16:32:43.538Z,40.93
2022-12-12T16:35:17.197Z,39.77
2022-12-12T16:37:45.667Z,42.33
2022-12-12T16:40:15.807Z,38.20
2022-12-12T16:42:45.708Z,41.47
2022-12-12T16:45:14.158Z,37.90
2022-12-12T16:47:43.909Z,43.60
2022-12-12T16:50:15.049Z,39.70
2022-12-12T16:52:43.435Z,43.70
2022-12-12T16:55:16.032Z,44.83
2022-12-12T16:57:44.454Z,47.40
2022-12-12T17:00:14.869Z,46.70
2022-12-12T17:02:44.961Z,49.40
2022-12-12T17:05:18.904Z,52.73
2022-12-12T17:07:47.428Z,51.13
2022-12-12T17:10:17.215Z,43.40
2022-12-12T17:12:45.653Z,46.60
2022-12-12T17:15:17.544Z,43.70
2022-12-12T17:17:47.971Z,42.30
2022-12-12T17:20:16.575Z,45.00
2022-12-12T17:22:45.742Z,56.10
2022-12-12T17:25:14.845Z,50.63
2022-12-12T17:27:43.738Z,54.43
2022-12-12T17:30:13.903Z,56.60
2022-12-12T17:32:42.935Z,49.90
2022-12-12T17:35:12.780Z,49.83
2022-12-12T17:37:41.246Z,42.80
2022-12-12T17:40:11.234Z,37.63
2022-12-12T17:42:39.930Z,41.90
2022-12-12T17:45:10.290Z,43.07
2022-12-12T17:47:38.908Z,42.70
2022-12-12T17:50:08.431Z,39.40
2022-12-12T17:52:38.555Z,118.03
2022-12-12T17:55:52.408Z,56.60
2022-12-12T17:57:55.549Z,53.77
2022-12-12T18:00:25.804Z,56.43
2022-12-12T18:02:54.077Z,49.97
2022-12-12T18:05:22.193Z,51.53
2022-12-12T18:07:51.747Z,42.00
2022-12-12T18:10:19.917Z,47.87
2022-12-12T18:12:51.568Z,53.03
2022-12-12T18:15:20.283Z,48.20
2022-12-12T18:17:48.434Z,48.97
2022-12-12T18:20:16.962Z,44.50
2022-12-12T18:22:45.199Z,50.80
2022-12-12T18:25:15.053Z,49.67
2022-12-12T18:27:43.191Z,48.03
2022-12-12T18:30:13.505Z,48.10
2022-12-12T18:32:42.093Z,51.93
2022-12-12T18:35:10.666Z,60.10
2022-12-12T18:37:38.793Z,50.87
2022-12-12T18:40:08.659Z,49.73
2022-12-12T18:42:38.249Z,47.53
2022-12-12T18:45:09.211Z,47.43
2022-12-12T18:47:37.391Z,43.80
2022-12-12T18:50:06.601Z,44.90
2022-12-12T18:52:34.829Z,46.17
2022-12-12T18:55:03.205Z,44.53
2022-12-12T18:57:31.410Z,49.57
2022-12-12T19:00:01.068Z,47.90
2022-12-12T19:02:29.360Z,40.93
2022-12-12T19:04:57.531Z,41.73
2022-12-12T19:07:25.835Z,41.90
2022-12-12T19:09:54.268Z,36.40
2022-12-12T19:12:24.950Z,41.83
2022-12-12T19:15:15.662Z,34.33
2022-12-12T19:17:42.876Z,125.00
2022-12-12T19:20:12.879Z,51.83
2022-12-12T19:22:46.010Z,67.80
2022-12-12T19:25:15.010Z,54.70
2022-12-12T19:27:43.332Z,51.93
2022-12-12T19:30:13.552Z,51.60
2022-12-12T19:32:45.845Z,50.70
2022-12-12T19:35:14.073Z,46.20
2022-12-12T19:37:42.326Z,46.73
2022-12-12T19:40:12.101Z,45.80
2022-12-12T19:42:40.692Z,50.23
2022-12-12T19:45:10.538Z,48.47
2022-12-12T19:47:38.742Z,47.57
2022-12-12T19:50:09.098Z,48.27
2022-12-12T19:52:37.282Z,49.70
2022-12-12T19:55:06.202Z,52.17
2022-12-12T19:57:34.395Z,52.80
2022-12-12T20:00:03.676Z,44.20
2022-12-12T20:02:31.874Z,54.00
2022-12-12T20:05:00.189Z,45.23
2022-12-12T20:07:29.744Z,43.70
2022-12-12T20:09:57.895Z,43.50
2022-12-12T20:12:26.086Z,36.67
2022-12-12T20:14:54.274Z,45.93
2022-12-12T20:17:22.473Z,36.90
2022-12-12T20:19:50.660Z,32.40
2022-12-12T20:22:18.844Z,38.73
2022-12-12T20:24:48.398Z,32.20
2022-12-12T20:27:16.539Z,31.43
2022-12-12T20:29:44.742Z,28.43
2022-12-12T20:32:13.553Z,29.00
2022-12-12T20:34:41.713Z,28.40
2022-12-12T20:37:09.927Z,29.17
2022-12-12T20:39:38.348Z,30.93
2022-12-12T20:42:08.084Z,30.10
2022-12-12T20:44:36.609Z,28.50
2022-12-12T20:47:06.579Z,28.03
2022-12-12T20:49:34.811Z,30.87
2022-12-12T20:52:02.955Z,33.63
2022-12-12T20:54:31.391Z,31.07
2022-12-12T20:57:00.177Z,47.13
2022-12-12T20:59:30.253Z,42.17
2022-12-12T21:01:58.534Z,47.57
2022-12-12T21:04:26.811Z,45.50
2022-12-12T21:06:55.027Z,44.43
2022-12-12T21:09:26.470Z,40.50
2022-12-12T21:11:56.364Z,50.87
2022-12-12T21:14:25.342Z,48.97
2022-12-12T21:16:55.222Z,42.30
2022-12-12T21:19:24.384Z,50.50
2022-12-12T21:21:52.786Z,50.97
2022-12-12T21:24:22.275Z,64.23
2022-12-12T21:26:50.835Z,64.13
2022-12-12T21:29:19.096Z,70.53
2022-12-12T21:31:51.684Z,61.97
2022-12-12T21:34:23.227Z,51.33
2022-12-12T21:36:52.899Z,71.37
2022-12-12T21:39:23.100Z,60.43
2022-12-12T21:41:51.401Z,64.10
2022-12-12T21:44:20.697Z,65.30
2022-12-12T21:46:49.259Z,61.87
2022-12-12T21:49:30.979Z,74.20
2022-12-12T21:52:03.352Z,66.23
2022-12-12T21:54:32.080Z,131.60
2022-12-12T21:57:01.365Z,90.83
2022-12-12T21:59:30.307Z,82.50
2022-12-12T22:02:00.642Z,52.43
2022-12-12T22:04:29.303Z,56.70
2022-12-12T22:06:58.092Z,51.00
2022-12-12T22:09:28.542Z,44.80
2022-12-12T22:12:03.716Z,43.87
2022-12-12T22:14:33.457Z,46.33
2022-12-12T22:17:01.932Z,76.73
2022-12-12T22:19:30.351Z,145.87
2022-12-12T22:21:58.580Z,52.17
2022-12-12T22:24:28.197Z,57.80
2022-12-12T22:26:56.295Z,113.97
2022-12-12T22:29:24.494Z,58.77
2022-12-12T22:31:53.205Z,45.27
2022-12-12T22:34:24.382Z,45.50
2022-12-12T22:36:53.734Z,108.97
2022-12-12T22:39:24.005Z,50.10
2022-12-12T22:41:53.882Z,178.47
2022-12-12T22:44:23.923Z,422.13
2022-12-12T22:46:54.257Z,82.40
2022-12-12T22:49:25.762Z,114.57
2022-12-12T22:51:55.535Z,161.30
2022-12-12T22:54:24.050Z,147.67
2022-12-12T22:56:54.143Z,153.53
2022-12-12T22:59:22.278Z,110.53
2022-12-12T23:01:50.423Z,92.07
2022-12-12T23:04:19.006Z,120.70
2022-12-12T23:06:47.292Z,85.50
2022-12-12T23:09:17.346Z,34.90
2022-12-12T23:11:46.825Z,36.53
2022-12-12T23:14:19.767Z,38.33
2022-12-12T23:16:48.139Z,36.80
2022-12-12T23:19:19.459Z,33.97
2022-12-12T23:21:47.861Z,35.33
2022-12-12T23:24:16.754Z,28.50
2022-12-12T23:26:45.354Z,28.50
2022-12-12T23:29:17.053Z,30.17
2022-12-12T23:31:45.825Z,27.57
2022-12-12T23:34:17.730Z,26.50
2022-12-12T23:36:45.971Z,24.23
2022-12-12T23:39:14.693Z,24.57
2022-12-12T23:41:43.377Z,21.67
2022-12-12T23:44:13.430Z,17.63
2022-12-12T23:46:43.585Z,17.13
2022-12-12T23:49:17.249Z,17.00
2022-12-12T23:51:47.022Z,13.43
2022-12-12T23:54:17.768Z,22.03
2022-12-12T23:56:46.070Z,21.47
2022-12-12T23:59:18.615Z,12.50
